Terminal Aerodrome Forecast
Issued by NWS Twin Cities, MN

Home | Current Version | Previous Version | Graphics & Text | Print | Product List | Glossary On
Versions: 1 2 3 4 5 6 7 8 9 10 11 12 13 14 15 16 17 18
000
FTUS43 KMPX 141100
TAFSTC
TAF
KSTC 141140Z 1412/1512 35016G23KT P6SM BKN150
     FM141900 33015G22KT P6SM BKN080
     FM150100 31011KT P6SM SCT060
     FM150700 30004KT P6SM SKC=

USA.gov is the U.S. government's official web portal to all federal, state and local government web resources and services.